createdAt,value
2022-09-28T00:00:27.190Z,98951.80
2022-09-28T00:03:37.580Z,98953.44
2022-09-28T00:06:30.264Z,98954.30
2022-09-28T00:09:20.255Z,98950.73
2022-09-28T00:12:11.373Z,98949.88
2022-09-28T00:15:02.097Z,98951.59
2022-09-28T00:17:52.297Z,98954.09
2022-09-28T00:20:43.081Z,98949.50
2022-09-28T00:23:33.277Z,98951.58
2022-09-28T00:26:23.545Z,98950.52
2022-09-28T00:29:29.225Z,98947.15
2022-09-28T00:32:21.056Z,98947.85
2022-09-28T00:35:11.527Z,98944.98
2022-09-28T00:38:03.255Z,98946.58
2022-09-28T00:40:53.288Z,98947.81
2022-09-28T00:43:43.318Z,98943.11
2022-09-28T00:46:33.780Z,98943.09
2022-09-28T00:49:28.637Z,98944.24
2022-09-28T00:52:21.554Z,98941.02
2022-09-28T00:55:15.327Z,98941.78
2022-09-28T00:58:07.168Z,98942.67
2022-09-28T01:00:58.277Z,98939.80
2022-09-28T01:03:48.772Z,98942.55
2022-09-28T01:06:38.941Z,98943.77
2022-09-28T01:09:29.444Z,98942.11
2022-09-28T01:12:19.821Z,98938.63
2022-09-28T01:15:11.053Z,98940.34
2022-09-28T01:18:09.324Z,98939.31
2022-09-28T01:21:05.595Z,98940.09
2022-09-28T01:24:16.867Z,98938.44
2022-09-28T01:27:11.219Z,98937.54
2022-09-28T01:30:04.522Z,98940.78
2022-09-28T01:32:58.513Z,98942.33
2022-09-28T01:35:51.863Z,98933.95
2022-09-28T01:38:44.821Z,98934.86
2022-09-28T01:41:36.078Z,98928.99
2022-09-28T01:44:28.021Z,98928.95
2022-09-28T01:47:21.332Z,98923.04
2022-09-28T01:50:14.229Z,98923.19
2022-09-28T01:53:07.402Z,98919.83
2022-09-28T01:56:00.389Z,98912.58
2022-09-28T01:58:53.060Z,98909.33
2022-09-28T02:01:45.896Z,98905.55
2022-09-28T02:04:40.723Z,98903.62
2022-09-28T02:07:37.568Z,98901.10
2022-09-28T02:10:29.245Z,98899.41
2022-09-28T02:13:21.662Z,98901.50
2022-09-28T02:16:25.095Z,98903.70
2022-09-28T02:19:17.714Z,98905.27
2022-09-28T02:22:15.771Z,98903.34
2022-09-28T02:25:10.492Z,98904.56
2022-09-28T02:28:04.089Z,98906.73
2022-09-28T02:30:54.051Z,98905.35
2022-09-28T02:33:45.249Z,98910.20
2022-09-28T02:36:35.810Z,98912.92
2022-09-28T02:39:26.272Z,98914.84
2022-09-28T02:42:20.553Z,98908.74
2022-09-28T02:45:15.833Z,98908.63
2022-09-28T02:48:24.078Z,98912.15
2022-09-28T02:51:32.152Z,98914.81
2022-09-28T02:55:02.261Z,98919.16
2022-09-28T02:58:06.393Z,98920.01
2022-09-28T03:01:01.874Z,98918.14
2022-09-28T03:03:54.760Z,98918.83
2022-09-28T03:06:48.177Z,98924.86
2022-09-28T03:09:42.389Z,98925.18
2022-09-28T03:12:32.736Z,98920.11
2022-09-28T03:15:25.376Z,98917.61
2022-09-28T03:18:15.969Z,98919.45
2022-09-28T03:21:06.852Z,98924.75
2022-09-28T03:23:57.097Z,98927.04
2022-09-28T03:26:47.066Z,98930.29
2022-09-28T03:29:38.523Z,98922.71
2022-09-28T03:32:30.637Z,98920.05
2022-09-28T03:35:20.856Z,98920.04
2022-09-28T03:38:10.854Z,98921.53
2022-09-28T03:41:01.493Z,98918.16
2022-09-28T03:43:56.072Z,98918.48
2022-09-28T03:46:47.826Z,98917.80
2022-09-28T03:49:37.818Z,98917.09
2022-09-28T03:52:27.969Z,98914.06
2022-09-28T03:55:18.309Z,98912.83
2022-09-28T03:58:08.271Z,98915.92
2022-09-28T04:01:03.705Z,98916.33
2022-09-28T04:03:55.591Z,98923.06
2022-09-28T04:06:45.703Z,98926.14
2022-09-28T04:09:35.756Z,98931.27
2022-09-28T04:12:26.136Z,98934.63
2022-09-28T04:15:16.396Z,98939.05
2022-09-28T04:18:10.530Z,98937.31
2022-09-28T04:21:29.953Z,98938.23
2022-09-28T04:24:26.669Z,98937.50
2022-09-28T04:27:46.402Z,98937.50
2022-09-28T04:30:36.521Z,98936.06
2022-09-28T04:33:26.861Z,98942.09
2022-09-28T04:36:19.171Z,98942.14
2022-09-28T04:39:10.291Z,98943.92
2022-09-28T04:42:01.087Z,98939.49
2022-09-28T04:44:51.541Z,98940.56
2022-09-28T04:47:41.689Z,98943.08
2022-09-28T04:50:55.981Z,98944.13
2022-09-28T04:53:46.102Z,98945.98
2022-09-28T04:56:36.277Z,98947.83
2022-09-28T04:59:27.105Z,98945.70
2022-09-28T05:02:17.143Z,98948.15
2022-09-28T05:05:26.207Z,98950.58
2022-09-28T05:08:39.207Z,98950.25
2022-09-28T05:11:29.214Z,98949.93
2022-09-28T05:14:21.308Z,98950.14
2022-09-28T05:17:12.338Z,98952.48
2022-09-28T05:20:11.238Z,98955.05
2022-09-28T05:23:01.374Z,98951.65
2022-09-28T05:25:51.420Z,98952.45
2022-09-28T05:28:48.293Z,98954.02
2022-09-28T05:32:01.622Z,98957.81
2022-09-28T05:35:10.540Z,98952.03
2022-09-28T05:38:07.727Z,98952.88
2022-09-28T05:40:58.086Z,98952.46
2022-09-28T05:43:51.740Z,98952.41
2022-09-28T05:46:42.156Z,98946.34
2022-09-28T05:49:33.437Z,98948.36
2022-09-28T05:52:24.524Z,98954.59
2022-09-28T05:55:14.747Z,98952.31
2022-09-28T05:58:07.099Z,98950.98
2022-09-28T06:00:57.690Z,98954.69
2022-09-28T06:03:47.974Z,98957.89
2022-09-28T06:06:38.613Z,98958.90
2022-09-28T06:09:28.731Z,98962.80
2022-09-28T06:12:21.793Z,98964.99
2022-09-28T06:15:17.290Z,98964.59
2022-09-28T06:18:11.073Z,98963.77
2022-09-28T06:21:27.879Z,98970.28
2022-09-28T06:24:18.092Z,98970.17
2022-09-28T06:27:08.492Z,98970.48
2022-09-28T06:30:00.374Z,98968.42
2022-09-28T06:32:54.448Z,98970.64
2022-09-28T06:35:44.653Z,98967.59
2022-09-28T06:38:34.848Z,98963.75
2022-09-28T06:41:26.943Z,98961.90
2022-09-28T06:44:17.283Z,98962.54
2022-09-28T06:47:26.014Z,98967.34
2022-09-28T06:50:28.120Z,98965.31
2022-09-28T06:53:53.257Z,98965.77
2022-09-28T06:57:12.673Z,98959.70
2022-09-28T07:00:03.883Z,98962.32
2022-09-28T07:02:53.911Z,98961.05
2022-09-28T07:06:04.669Z,98964.19
2022-09-28T07:09:19.736Z,98967.39
2022-09-28T07:12:31.748Z,98971.86
2022-09-28T07:15:26.528Z,98975.93
2022-09-28T07:18:18.305Z,98977.40
2022-09-28T07:21:13.833Z,98981.02
2022-09-28T07:24:11.893Z,98986.48
2022-09-28T07:27:37.330Z,98989.84
2022-09-28T07:30:50.425Z,98989.98
2022-09-28T07:34:08.348Z,98990.59
2022-09-28T07:37:18.717Z,98989.48
2022-09-28T07:40:29.913Z,98985.91
2022-09-28T07:43:21.104Z,98987.67
2022-09-28T07:46:16.305Z,98986.23
2022-09-28T07:49:26.641Z,98988.65
2022-09-28T07:52:25.436Z,98988.69
2022-09-28T07:55:38.333Z,98991.11
2022-09-28T07:58:34.576Z,98990.53
2022-09-28T08:01:44.898Z,98987.55
2022-09-28T08:04:37.382Z,98987.13
2022-09-28T08:07:27.521Z,98990.44
2022-09-28T08:10:26.420Z,98989.70
2022-09-28T08:13:37.111Z,98991.84
2022-09-28T08:16:53.297Z,98990.61
2022-09-28T08:20:16.649Z,98994.98
2022-09-28T08:23:08.141Z,98997.77
2022-09-28T08:25:59.545Z,98997.73
2022-09-28T08:28:49.780Z,98997.19
2022-09-28T08:32:01.500Z,98999.06
2022-09-28T08:34:58.254Z,98997.80
2022-09-28T08:38:06.985Z,99001.53
2022-09-28T08:41:21.899Z,99002.05
2022-09-28T08:48:09.709Z,98996.11
2022-09-28T08:51:14.136Z,98997.06
2022-09-28T08:54:33.506Z,98993.72
2022-09-28T08:57:30.777Z,98995.42
2022-09-28T09:00:30.615Z,98987.27
2022-09-28T09:03:25.371Z,98989.50
2022-09-28T09:06:39.597Z,98989.23
2022-09-28T09:09:57.194Z,98993.48
2022-09-28T09:12:55.065Z,98995.59
2022-09-28T09:15:48.330Z,98998.96
2022-09-28T09:18:51.416Z,99003.37
2022-09-28T09:21:55.372Z,99006.43
2022-09-28T09:24:50.751Z,99011.25
2022-09-28T09:27:52.858Z,99011.80
2022-09-28T09:30:49.433Z,99013.99
2022-09-28T09:34:01.288Z,99018.94
2022-09-28T09:37:23.114Z,99023.16
2022-09-28T09:40:53.573Z,99025.70
2022-09-28T09:44:27.469Z,99027.63
2022-09-28T09:47:30.126Z,99024.36
2022-09-28T09:50:31.229Z,99023.67
2022-09-28T09:53:27.033Z,99022.27
2022-09-28T09:56:19.550Z,99020.83
2022-09-28T09:59:33.110Z,99014.51
2022-09-28T10:02:28.885Z,99015.27
2022-09-28T10:05:28.490Z,99010.04
2022-09-28T10:08:20.117Z,99007.66
2022-09-28T10:11:13.759Z,99009.84
2022-09-28T10:14:07.585Z,99005.41
2022-09-28T10:17:04.313Z,99004.18
2022-09-28T10:20:15.610Z,99001.71
2022-09-28T10:23:22.100Z,98999.48
2022-09-28T10:26:13.652Z,99000.65
2022-09-28T10:29:04.862Z,98995.85
2022-09-28T10:31:55.500Z,98996.35
2022-09-28T10:35:21.014Z,98993.35
2022-09-28T10:38:17.219Z,98992.80
2022-09-28T10:41:16.657Z,98988.84
2022-09-28T10:44:30.118Z,98986.05
2022-09-28T10:47:25.479Z,98987.86
2022-09-28T10:50:22.582Z,98986.05
2022-09-28T10:53:20.935Z,98986.02
2022-09-28T10:56:36.525Z,98984.08
2022-09-28T10:59:41.509Z,98986.34
2022-09-28T11:02:45.867Z,98982.76
2022-09-28T11:05:39.470Z,98983.08
2022-09-28T11:08:33.105Z,98986.71
2022-09-28T11:11:24.609Z,98981.22
2022-09-28T11:14:28.065Z,98981.05
2022-09-28T11:17:26.718Z,98986.56
2022-09-28T11:20:34.024Z,98980.90
2022-09-28T11:23:31.234Z,98981.46
2022-09-28T11:26:27.061Z,98982.13
2022-09-28T11:29:30.752Z,98978.48
2022-09-28T11:32:44.278Z,98981.84
2022-09-28T11:35:50.018Z,98984.73
2022-09-28T11:38:46.908Z,98984.88
2022-09-28T11:42:00.573Z,98988.71
2022-09-28T11:44:51.241Z,98987.67
2022-09-28T11:47:52.369Z,98984.99
2022-09-28T11:50:47.364Z,98982.95
2022-09-28T11:53:40.146Z,98985.11
2022-09-28T11:56:35.210Z,98985.34
2022-09-28T11:59:28.876Z,98983.08
2022-09-28T12:02:22.039Z,98986.54
2022-09-28T12:05:21.928Z,98990.37
2022-09-28T12:08:16.744Z,98989.08
2022-09-28T12:11:45.848Z,98992.66
2022-09-28T12:14:40.209Z,98990.95
2022-09-28T12:17:34.730Z,98994.43
2022-09-28T12:20:26.994Z,99000.11
2022-09-28T12:23:18.377Z,98999.73
2022-09-28T12:26:24.117Z,99000.59
2022-09-28T12:29:15.517Z,98997.77
2022-09-28T12:32:12.710Z,98994.20
2022-09-28T12:35:03.335Z,98993.45
2022-09-28T12:38:08.358Z,98992.63
2022-09-28T12:41:01.557Z,98992.98
2022-09-28T12:44:12.616Z,98988.44
2022-09-28T12:47:29.214Z,98982.60
2022-09-28T12:50:44.157Z,98980.70
2022-09-28T12:53:52.886Z,98977.77
2022-09-28T12:56:49.989Z,98970.20
2022-09-28T12:59:42.536Z,98965.77
2022-09-28T13:02:50.708Z,98966.89
2022-09-28T13:06:00.526Z,98968.34
2022-09-28T13:09:21.991Z,98972.89
2022-09-28T13:12:28.771Z,98971.41
2022-09-28T13:15:42.372Z,98968.20
2022-09-28T13:18:36.980Z,98969.69
2022-09-28T13:21:31.077Z,98966.92
2022-09-28T13:24:33.379Z,98970.46
2022-09-28T13:27:33.287Z,98968.55
2022-09-28T13:30:23.870Z,98965.57
2022-09-28T13:33:19.216Z,98962.52
2022-09-28T13:36:40.471Z,98963.38
2022-09-28T13:39:51.383Z,98962.43
2022-09-28T13:43:09.480Z,98956.45
2022-09-28T13:46:00.339Z,98959.81
2022-09-28T13:48:56.007Z,98958.66
2022-09-28T13:51:56.349Z,98960.69
2022-09-28T13:54:56.216Z,98957.44
2022-09-28T13:57:50.757Z,98958.47
2022-09-28T14:00:50.718Z,98955.06
2022-09-28T14:03:54.402Z,98959.27
2022-09-28T14:06:48.678Z,98964.08
2022-09-28T14:09:45.084Z,98962.11
2022-09-28T14:12:49.714Z,98958.30
2022-09-28T14:16:14.881Z,98949.16
2022-09-28T14:19:07.909Z,98952.52
2022-09-28T14:22:07.632Z,98952.20
2022-09-28T14:25:05.871Z,98951.23
2022-09-28T14:28:26.737Z,98955.72
2022-09-28T14:31:23.885Z,98951.58
2022-09-28T14:34:33.554Z,98950.70
2022-09-28T14:37:45.290Z,98945.79
2022-09-28T14:41:13.225Z,98948.60
2022-09-28T14:44:08.131Z,98945.26
2022-09-28T14:47:25.885Z,98945.05
2022-09-28T14:50:23.963Z,98947.45
2022-09-28T14:53:14.364Z,98942.86
2022-09-28T14:56:04.858Z,98945.23
2022-09-28T14:58:57.361Z,98939.63
2022-09-28T15:01:50.423Z,98940.42
2022-09-28T15:04:44.304Z,98940.66
2022-09-28T15:07:47.325Z,98943.23
2022-09-28T15:10:39.810Z,98944.02
2022-09-28T15:13:29.823Z,98947.13
2022-09-28T15:16:23.530Z,98942.89
2022-09-28T15:19:22.222Z,98945.77
2022-09-28T15:22:17.143Z,98943.29
2022-09-28T15:25:18.252Z,98943.44
2022-09-28T15:28:19.066Z,98945.11
2022-09-28T15:31:18.998Z,98939.77
2022-09-28T15:34:44.627Z,98941.80
2022-09-28T15:37:39.596Z,98942.39
2022-09-28T15:40:31.575Z,98943.98
2022-09-28T15:43:32.315Z,98945.48
2022-09-28T15:46:27.441Z,98954.01
2022-09-28T15:49:28.955Z,98958.13
2022-09-28T15:52:38.679Z,98958.38
2022-09-28T15:55:31.773Z,98952.98
2022-09-28T15:58:26.863Z,98942.80
2022-09-28T16:01:37.154Z,98932.98
2022-09-28T16:04:47.388Z,98926.63
2022-09-28T16:07:39.374Z,98922.89
2022-09-28T16:10:35.523Z,98925.77
2022-09-28T16:13:25.619Z,98921.23
2022-09-28T16:16:17.350Z,98923.73
2022-09-28T16:19:17.263Z,98929.23
2022-09-28T16:22:07.823Z,98928.85
2022-09-28T16:24:58.598Z,98930.83
2022-09-28T16:27:48.655Z,98932.23
2022-09-28T16:30:40.466Z,98931.41
2022-09-28T16:33:37.987Z,98936.33
2022-09-28T16:36:31.401Z,98940.31
2022-09-28T16:39:23.263Z,98943.91
2022-09-28T16:42:13.442Z,98945.28
2022-09-28T16:45:10.033Z,98940.94
2022-09-28T16:48:00.990Z,98936.39
2022-09-28T16:50:51.069Z,98946.25
2022-09-28T16:54:07.797Z,98954.58
2022-09-28T16:56:57.076Z,98945.48
2022-09-28T16:59:47.212Z,98933.40
2022-09-28T17:02:46.759Z,98935.41
2022-09-28T17:05:39.691Z,98933.54
2022-09-28T17:08:29.773Z,98930.61
2022-09-28T17:11:24.568Z,98931.02
2022-09-28T17:14:15.364Z,98936.36
2022-09-28T17:17:12.537Z,98936.78
2022-09-28T17:20:17.032Z,98936.72
2022-09-28T17:23:07.397Z,98928.14
2022-09-28T17:25:58.380Z,98931.60
2022-09-28T17:28:48.393Z,98929.50
2022-09-28T17:31:38.469Z,98938.04
2022-09-28T17:34:28.783Z,98934.02
2022-09-28T17:37:19.045Z,98932.26
2022-09-28T17:40:19.489Z,98928.65
2022-09-28T17:43:09.605Z,98923.41
2022-09-28T17:45:59.555Z,98928.04
2022-09-28T17:48:49.924Z,98932.52
2022-09-28T17:51:40.240Z,98931.48
2022-09-28T17:54:30.215Z,98929.86
2022-09-28T17:57:20.127Z,98927.73
2022-09-28T18:00:14.305Z,98929.91
2022-09-28T18:03:06.121Z,98938.58
2022-09-28T18:06:03.548Z,98944.98
2022-09-28T18:08:53.774Z,98949.08
2022-09-28T18:11:45.494Z,98956.97
2022-09-28T18:14:36.043Z,98951.30
2022-09-28T18:17:26.414Z,98953.66
2022-09-28T18:20:16.456Z,98952.50
2022-09-28T18:23:06.598Z,98952.87
2022-09-28T18:25:57.264Z,98952.55
2022-09-28T18:28:47.186Z,98956.41
2022-09-28T18:31:37.513Z,98954.31
2022-09-28T18:34:27.793Z,98954.59
2022-09-28T18:37:17.827Z,98953.94
2022-09-28T18:40:12.769Z,98955.21
2022-09-28T18:43:02.749Z,98954.31
2022-09-28T18:45:55.612Z,98955.30
2022-09-28T18:48:46.709Z,98955.30
2022-09-28T18:51:36.816Z,98958.52
2022-09-28T18:54:27.282Z,98962.29
2022-09-28T18:57:17.381Z,98963.16
2022-09-28T19:00:12.318Z,98964.80
2022-09-28T19:03:02.527Z,98964.84
2022-09-28T19:05:52.664Z,98967.98
2022-09-28T19:08:42.926Z,98963.38
2022-09-28T19:11:33.097Z,98966.10
2022-09-28T19:14:23.160Z,98969.50
2022-09-28T19:17:13.120Z,98970.77
2022-09-28T19:20:04.441Z,98968.23
2022-09-28T19:22:54.565Z,98968.11
2022-09-28T19:25:44.521Z,98971.11
2022-09-28T19:28:34.937Z,98976.28
2022-09-28T19:31:25.360Z,98973.69
2022-09-28T19:34:15.507Z,98977.43
2022-09-28T19:37:05.688Z,98976.34
2022-09-28T19:39:55.627Z,98975.86
2022-09-28T19:42:45.792Z,98972.41
2022-09-28T19:45:37.385Z,98971.07
2022-09-28T19:48:28.311Z,98977.82
2022-09-28T19:51:18.427Z,98979.33
2022-09-28T19:54:10.662Z,98980.81
2022-09-28T19:57:06.978Z,98989.50
2022-09-28T20:00:02.005Z,98987.05
2022-09-28T20:02:55.339Z,98986.71
2022-09-28T20:05:45.384Z,98990.05
2022-09-28T20:08:35.448Z,98991.69
2022-09-28T20:11:25.850Z,98994.68
2022-09-28T20:14:18.272Z,98999.05
2022-09-28T20:17:09.039Z,98996.20
2022-09-28T20:19:59.030Z,98999.33
2022-09-28T20:22:49.112Z,99002.84
2022-09-28T20:25:39.285Z,99007.73
2022-09-28T20:28:29.714Z,99007.09
2022-09-28T20:31:21.235Z,99010.42
2022-09-28T20:34:12.708Z,99007.69
2022-09-28T20:37:05.627Z,99008.69
2022-09-28T20:39:56.068Z,99001.38
2022-09-28T20:42:46.144Z,99002.06
2022-09-28T20:45:37.474Z,99000.56
2022-09-28T20:48:27.999Z,99005.52
2022-09-28T20:51:19.710Z,99006.23
2022-09-28T20:54:10.501Z,99005.74
2022-09-28T20:57:00.530Z,99008.09
2022-09-28T20:59:54.462Z,99007.45
2022-09-28T21:02:45.065Z,99009.48
2022-09-28T21:05:37.225Z,99014.14
2022-09-28T21:08:27.211Z,99009.20
2022-09-28T21:11:20.431Z,99013.46
2022-09-28T21:14:10.677Z,99016.81
2022-09-28T21:17:01.217Z,99017.35
2022-09-28T21:19:51.268Z,99020.32
2022-09-28T21:22:41.196Z,99020.64
2022-09-28T21:25:31.199Z,99025.37
2022-09-28T21:28:21.130Z,99025.25
2022-09-28T21:31:12.214Z,99028.61
2022-09-28T21:34:04.047Z,99033.67
2022-09-28T21:36:54.159Z,99034.85
2022-09-28T21:39:44.149Z,99039.77
2022-09-28T21:42:34.311Z,99037.68
2022-09-28T21:45:24.869Z,99039.38
2022-09-28T21:48:17.145Z,99042.95
2022-09-28T21:51:09.722Z,99045.83
2022-09-28T21:53:59.752Z,99049.52
2022-09-28T21:56:49.615Z,99048.70
2022-09-28T21:59:39.749Z,99051.52
2022-09-28T22:02:31.439Z,99050.66
2022-09-28T22:05:21.504Z,99054.23
2022-09-28T22:08:11.739Z,99059.25
2022-09-28T22:11:03.081Z,99066.71
2022-09-28T22:13:54.953Z,99065.58
2022-09-28T22:16:45.189Z,99068.86
2022-09-28T22:19:35.608Z,99066.31
2022-09-28T22:22:29.057Z,99069.93
2022-09-28T22:25:19.408Z,99069.94
2022-09-28T22:28:09.603Z,99071.69
2022-09-28T22:31:00.026Z,99077.39
2022-09-28T22:33:50.444Z,99076.96
2022-09-28T22:36:41.137Z,99076.80
2022-09-28T22:39:34.324Z,99080.33
2022-09-28T22:42:27.526Z,99080.73
2022-09-28T22:45:17.439Z,99082.17
2022-09-28T22:48:07.448Z,99078.59
2022-09-28T22:50:58.790Z,99077.24
2022-09-28T22:53:48.739Z,99076.88
2022-09-28T22:56:38.670Z,99074.41
2022-09-28T22:59:28.904Z,99076.30
2022-09-28T23:02:18.825Z,99079.41
2022-09-28T23:05:09.915Z,99080.29
2022-09-28T23:08:00.087Z,99085.15
2022-09-28T23:10:50.347Z,99088.08
2022-09-28T23:13:40.298Z,99087.82
2022-09-28T23:16:30.678Z,99085.77
2022-09-28T23:19:20.709Z,99081.67
2022-09-28T23:22:10.916Z,99086.10
2022-09-28T23:25:00.841Z,99087.01
2022-09-28T23:27:51.148Z,99087.05
2022-09-28T23:30:41.603Z,99090.63
2022-09-28T23:33:31.580Z,99087.59
2022-09-28T23:36:21.503Z,99092.94
2022-09-28T23:39:12.377Z,99092.20
2022-09-28T23:42:02.504Z,99097.29
2022-09-28T23:44:52.509Z,99094.50
2022-09-28T23:47:42.474Z,99093.43
2022-09-28T23:50:32.410Z,99095.41
2022-09-28T23:53:22.544Z,99090.60
2022-09-28T23:56:12.734Z,99090.55
2022-09-28T23:59:02.641Z,99091.15
